Borsk

EPBO · Pomerania, Polonia

METAR pasados EPBO · Borsk

A continuación puedes ver los METAR de los últimos días. Selecciona un año para ver los METAR más antiguos, desde el año 2007 en adelante.

21 de julio de 2024

Hora Código Tiempo Temp. Visibilidad Cielo nuboso Viento METAR/SPECI
02:00
V
15 °C 10 km+ - 260° 260° 2 kt METAR EPGD 210000Z 26002KT CAVOK 15/15 Q1012
01:30
V
16 °C 10 km+ - Var Var 2 kt METAR EPGD 202330Z VRB02KT CAVOK 16/16 Q1012
01:00
V
16 °C 10 km+ - 070° 070° 1 kt METAR EPGD 202300Z 07001KT CAVOK 16/16 Q1012
00:30
V
16 °C 10 km+ - 260° 260° 2 kt METAR EPGD 202230Z 26002KT CAVOK 16/16 Q1012
00:00
V
16 °C 10 km+ - 230° 230° 2 kt METAR EPGD 202200Z 23002KT CAVOK 16/16 Q1012

20 de julio de 2024

Hora Código Tiempo Temp. Visibilidad Cielo nuboso Viento METAR/SPECI
23:30
V
16 °C 10 km+ - Var Var 1 kt METAR EPGD 202130Z VRB01KT CAVOK 16/16 Q1012
23:00
V
17 °C 10 km+ - 110° 110° 1 kt METAR EPGD 202100Z 11001KT CAVOK 17/17 Q1012
22:30
V
17 °C 10 km+ - 080° 080° 2 kt METAR EPGD 202030Z 08002KT CAVOK 17/17 Q1012
22:00
V
17 °C 10 km+ - Var Var 2 kt METAR EPGD 202000Z VRB02KT CAVOK 17/17 Q1012
21:30
V
18 °C 10 km+ - 090° 090° 3 kt METAR EPGD 201930Z 09003KT CAVOK 18/17 Q1012
21:00
V
18 °C 10 km+ - 050° 050° 3 kt METAR EPGD 201900Z 05003KT 020V110 CAVOK 18/16 Q1012
20:30
V
19 °C 10 km+ - 050° 050° 5 kt METAR EPGD 201830Z 05005KT CAVOK 19/16 Q1012
20:00
V
19 °C 10 km+ - 040° 040° 6 kt METAR EPGD 201800Z 04006KT CAVOK 19/15 Q1013
19:30
V
20 °C 10 km+ - 050° 050° 7 kt METAR EPGD 201730Z 05007KT 010V080 CAVOK 20/15 Q1013
19:00
V
20 °C 10 km+ - 060° 060° 7 kt METAR EPGD 201700Z 06007KT CAVOK 20/15 Q1013
18:30
V
21 °C 10 km+ - 040° 040° 7 kt METAR EPGD 201630Z 04007KT CAVOK 21/16 Q1013
18:00
V
21 °C 10 km+ - 040° 040° 9 kt METAR EPGD 201600Z 04009KT 010V080 CAVOK 21/16 Q1013
17:30
V
21 °C 10 km+ - 040° 040° 10 kt METAR EPGD 201530Z 04010KT CAVOK 21/16 Q1013
17:00
V
21 °C 10 km+ - 060° 060° 9 kt METAR EPGD 201500Z 06009KT 020V080 CAVOK 21/15 Q1013
16:30
V
22 °C 10 km+ - 060° 060° 8 kt METAR EPGD 201430Z 06008KT 020V080 CAVOK 22/15 Q1013
16:00
V
22 °C 10 km+ - 060° 060° 9 kt METAR EPGD 201400Z 06009KT CAVOK 22/15 Q1013
15:30
V
23 °C 10 km+ - 050° 050° 9 kt METAR EPGD 201330Z 05009KT 020V080 CAVOK 23/15 Q1013
15:00
V
23 °C 10 km+ - 050° 050° 10 kt METAR EPGD 201300Z 05010KT CAVOK 23/14 Q1013
14:30
V
23 °C 10 km+ - 050° 050° 9 kt METAR EPGD 201230Z 05009KT CAVOK 23/14 Q1014
14:00
V
24 °C 10 km+ - 100° 100° 6 kt METAR EPGD 201200Z 10006KT 080V150 CAVOK 24/14 Q1014
13:30
V
23 °C 10 km+ - 070° 070° 6 kt METAR EPGD 201130Z 07006KT 020V110 CAVOK 23/13 Q1014
13:00
V
24 °C 10 km+ - 070° 070° 5 kt METAR EPGD 201100Z 07005KT 030V120 CAVOK 24/14 Q1014
12:30
V
23 °C 10 km+ - Var Var 4 kt METAR EPGD 201030Z VRB04KT CAVOK 23/11 Q1014
12:00
V
23 °C 10 km+ - 270° 270° 5 kt METAR EPGD 201000Z 27005KT 200V340 9999 FEW044 23/13 Q1015
11:30
V
23 °C 10 km+ - 280° 280° 5 kt METAR EPGD 200930Z 28005KT 180V320 9999 FEW042 23/12 Q1015
11:00
V
22 °C 10 km+ - Var Var 3 kt METAR EPGD 200900Z VRB03KT CAVOK 22/13 Q1015
10:30
V
22 °C 10 km+ - Var Var 2 kt METAR EPGD 200830Z VRB02KT CAVOK 22/13 Q1015
10:00
V
22 °C 10 km+ - 290° 290° 4 kt METAR EPGD 200800Z 29004KT 260V340 CAVOK 22/14 Q1015
09:30
V
21 °C 10 km+ - 270° 270° 4 kt METAR EPGD 200730Z 27004KT 200V320 CAVOK 21/14 Q1015
09:00
V
20 °C 10 km+ - 290° 290° 4 kt METAR EPGD 200700Z 29004KT 230V340 CAVOK 20/14 Q1015
08:30
V
19 °C 10 km+ - 270° 270° 5 kt METAR EPGD 200630Z 27005KT CAVOK 19/14 Q1015
08:00
V
18 °C 10 km+ - 240° 240° 4 kt METAR EPGD 200600Z 24004KT CAVOK 18/14 Q1016
07:30
V
17 °C 10 km+ - 250° 250° 3 kt METAR EPGD 200530Z 25003KT 230V290 CAVOK 17/14 Q1016
07:00
V
16 °C 10 km+ - 260° 260° 3 kt METAR EPGD 200500Z 26003KT CAVOK 16/14 Q1016
06:30
V
14 °C 10 km+ - 270° 270° 3 kt METAR EPGD 200430Z 27003KT CAVOK 14/14 Q1016
06:00
V
13 °C 10 km+ - 280° 280° 2 kt METAR EPGD 200400Z 28002KT CAVOK 13/13 Q1016
05:30
V
12 °C 9 km - 270° 270° 1 kt METAR EPGD 200330Z 27001KT 9000 MIFG NSC 12/12 Q1016
05:00
M
12 °C 7 km - 280° 280° 3 kt METAR EPGD 200300Z 28003KT 7000 MIFG NSC 12/12 Q1017
04:30
M
12 °C 7 km - Var Var 1 kt METAR EPGD 200230Z VRB01KT 7000 MIFG NSC 12/12 Q1017
04:00
M
13 °C 5 km - 230° 230° 2 kt METAR EPGD 200200Z 23002KT 5000 MIFG BR NSC 13/13 Q1017
03:30
M
13 °C 7 km - 280° 280° 2 kt METAR EPGD 200130Z 28002KT 7000 MIFG NSC 13/13 Q1017
03:00
M
13 °C 6 km - 260° 260° 2 kt METAR EPGD 200100Z 26002KT 6000 MIFG NSC 13/13 Q1017
02:30
V
13 °C 9 km - 290° 290° 2 kt METAR EPGD 200030Z 29002KT 9000 MIFG NSC 13/13 Q1017
02:00
M
14 °C 7 km - 280° 280° 2 kt METAR EPGD 200000Z 28002KT 7000 MIFG NSC 14/14 Q1018
01:30
M
14 °C 7 km - Var Var 1 kt METAR EPGD 192330Z VRB01KT 7000 MIFG NSC 14/14 Q1018
01:00
V
14 °C 10 km+ - Var Var 1 kt METAR EPGD 192300Z VRB01KT 9999 MIFG NSC 14/14 Q1018
00:30
V
15 °C 10 km+ - Var Var 2 kt METAR EPGD 192230Z VRB02KT 9999 MIFG NSC 15/15 Q1018
00:00
V
15 °C 10 km+ - Var Var 2 kt METAR EPGD 192200Z VRB02KT 9999 MIFG NSC 15/15 Q1018

19 de julio de 2024

Hora Código Tiempo Temp. Visibilidad Cielo nuboso Viento METAR/SPECI
23:30
V
15 °C 10 km+ - 250° 250° 2 kt METAR EPGD 192130Z 25002KT CAVOK 15/15 Q1018
23:00
V
16 °C 10 km+ - 160° 160° 2 kt METAR EPGD 192100Z 16002KT CAVOK 16/15 Q1019
22:30
V
16 °C 10 km+ - 170° 170° 4 kt METAR EPGD 192030Z 17004KT 150V240 CAVOK 16/15 Q1019
22:00
V
17 °C 10 km+ - 170° 170° 3 kt METAR EPGD 192000Z 17003KT CAVOK 17/15 Q1019
21:30
V
16 °C 10 km+ - 090° 090° 3 kt METAR EPGD 191930Z 09003KT CAVOK 16/15 Q1019
21:00
V
17 °C 10 km+ - 090° 090° 3 kt METAR EPGD 191900Z 09003KT 050V130 CAVOK 17/15 Q1019
20:30
V
18 °C 10 km+ - 080° 080° 5 kt METAR EPGD 191830Z 08005KT CAVOK 18/15 Q1019
20:00
V
19 °C 10 km+ - 080° 080° 6 kt METAR EPGD 191800Z 08006KT CAVOK 19/15 Q1019
19:30
V
19 °C 10 km+ - 080° 080° 7 kt METAR EPGD 191730Z 08007KT CAVOK 19/15 Q1019
19:00
V
20 °C 10 km+ - 080° 080° 7 kt METAR EPGD 191700Z 08007KT CAVOK 20/15 Q1019
18:30
V
20 °C 10 km+ - 070° 070° 7 kt METAR EPGD 191630Z 07007KT 040V110 CAVOK 20/15 Q1019
18:00
V
21 °C 10 km+ - 080° 080° 8 kt METAR EPGD 191600Z 08008KT CAVOK 21/15 Q1019
17:30
V
21 °C 10 km+ - 080° 080° 8 kt METAR EPGD 191530Z 08008KT 9999 FEW047 21/15 Q1019
17:00
V
21 °C 10 km+ - 070° 070° 7 kt METAR EPGD 191500Z 07007KT 9999 FEW046 21/15 Q1019
16:30
V
21 °C 10 km+ - 070° 070° 7 kt METAR EPGD 191430Z 07007KT 020V110 9999 FEW046 21/15 Q1020
16:00
V
23 °C 10 km+ - Var Var 3 kt METAR EPGD 191400Z VRB03KT 9999 FEW045 23/13 Q1020
15:30
V
23 °C 10 km+ - 310° 310° 7 kt METAR EPGD 191330Z 31007KT 9999 FEW044 23/13 Q1020
15:00
V
22 °C 10 km+ - 280° 280° 7 kt METAR EPGD 191300Z 28007KT 240V320 9999 FEW042 22/13 Q1021
14:30
V
22 °C 10 km+ - 270° 270° 8 kt METAR EPGD 191230Z 27008KT 230V300 9999 FEW041 22/12 Q1021
14:00
V
22 °C 10 km+ - 300° 300° 7 kt METAR EPGD 191200Z 30007KT 250V340 9999 SCT039 22/13 Q1021
13:30
V
21 °C 10 km+ - 280° 280° 9 kt METAR EPGD 191130Z 28009KT 260V330 9999 SCT037 21/12 Q1021
13:00
V
21 °C 10 km+ - 270° 270° 9 kt METAR EPGD 191100Z 27009KT 9999 SCT037 21/13 Q1022
12:30
V
20 °C 10 km+ 3.500 ft 300° 300° 8 kt METAR EPGD 191030Z 30008KT 9999 BKN035 20/13 Q1022
12:00
V
20 °C 10 km+ - 290° 290° 10 kt METAR EPGD 191000Z 29010KT 9999 FEW035 20/13 Q1022
11:30
M
19 °C 10 km+ 3.000 ft 290° 290° 10 kt METAR EPGD 190930Z 29010KT 9999 BKN030 19/12 Q1022
11:00
M
19 °C 10 km+ 2.600 ft 300° 300° 8 kt METAR EPGD 190900Z 30008KT 9999 BKN026 19/13 Q1022
10:30
M
18 °C 10 km+ 2.400 ft 290° 290° 9 kt METAR EPGD 190830Z 29009KT 270V330 9999 BKN024 18/12 Q1022
10:00
M
18 °C 10 km+ 2.300 ft 300° 300° 9 kt METAR EPGD 190800Z 30009KT 270V340 9999 BKN023 18/13 Q1022
09:30
M
18 °C 10 km+ 2.100 ft 280° 280° 11 kt METAR EPGD 190730Z 28011KT 9999 FEW015 BKN021 18/13 Q1022
09:00
M
17 °C 10 km+ 1.900 ft 290° 290° 12 kt METAR EPGD 190700Z 29012KT 9999 FEW013 BKN019 17/13 Q1022
08:30
M
17 °C 10 km+ 1.600 ft 290° 290° 11 kt METAR EPGD 190630Z 29011KT 9999 FEW011 BKN016 17/13 Q1022
08:00
M
17 °C 10 km+ 1.400 ft 290° 290° 9 kt METAR EPGD 190600Z 29009KT 9999 FEW009 BKN014 17/14 Q1022
07:30
M
16 °C 10 km+ 1.100 ft 290° 290° 9 kt METAR EPGD 190530Z 29009KT 270V330 9999 FEW006 BKN011 16/14 Q1022
07:00
I
15 °C 10 km+ 600 ft 280° 280° 8 kt METAR EPGD 190500Z 28008KT 9999 FEW004 BKN006 15/14 Q1022
06:30
I
14 °C 10 km+ 500 ft 270° 270° 7 kt METAR EPGD 190430Z 27007KT 9999 BKN005 14/14 Q1022
06:00
V
14 °C 10 km+ - 260° 260° 6 kt METAR EPGD 190400Z 26006KT 9999 FEW005 14/13 Q1022
05:30
V
14 °C 10 km+ - 250° 250° 6 kt METAR EPGD 190330Z 25006KT 9999 FEW006 14/13 Q1022
05:00
V
13 °C 10 km+ - 230° 230° 5 kt METAR EPGD 190300Z 23005KT CAVOK 13/13 Q1022
04:30
V
13 °C 10 km+ - 230° 230° 5 kt METAR EPGD 190230Z 23005KT 9999 FEW011 13/13 Q1022
04:00
V
13 °C 10 km+ - 210° 210° 4 kt METAR EPGD 190200Z 21004KT CAVOK 13/13 Q1022
03:30
V
14 °C 10 km+ - 210° 210° 3 kt METAR EPGD 190130Z 21003KT 9999 FEW018 14/13 Q1022
03:00
V
14 °C 10 km+ - 220° 220° 3 kt METAR EPGD 190100Z 22003KT 9999 SCT008 14/13 Q1022
02:30
I
14 °C 10 km+ 900 ft 260° 260° 5 kt METAR EPGD 190030Z 26005KT 9999 BKN009 14/14 Q1023
02:00
I
14 °C 10 km+ 900 ft 260° 260° 4 kt METAR EPGD 190000Z 26004KT 9999 BKN009 14/14 Q1022
01:30
V
14 °C 10 km+ - 260° 260° 4 kt METAR EPGD 182330Z 26004KT 9999 SCT009 14/13 Q1022
01:00
V
14 °C 10 km+ - 250° 250° 4 kt METAR EPGD 182300Z 25004KT 200V260 CAVOK 14/13 Q1022
00:30
V
15 °C 10 km+ - 260° 260° 4 kt METAR EPGD 182230Z 26004KT CAVOK 15/13 Q1022
00:00
V
15 °C 10 km+ - 270° 270° 5 kt METAR EPGD 182200Z 27005KT 230V290 CAVOK 15/13 Q1022

18 de julio de 2024

Hora Código Tiempo Temp. Visibilidad Cielo nuboso Viento METAR/SPECI
23:30
V
16 °C 10 km+ - 250° 250° 4 kt METAR EPGD 182130Z 25004KT CAVOK 16/13 Q1022
23:00
V
16 °C 10 km+ - 260° 260° 5 kt METAR EPGD 182100Z 26005KT CAVOK 16/13 Q1022
22:30
V
16 °C 10 km+ - 240° 240° 5 kt METAR EPGD 182030Z 24005KT CAVOK 16/13 Q1022
22:00
V
17 °C 10 km+ - 250° 250° 5 kt METAR EPGD 182000Z 25005KT CAVOK 17/13 Q1022
21:30
V
17 °C 10 km+ - 270° 270° 8 kt METAR EPGD 181930Z 27008KT CAVOK 17/13 Q1022
21:00
V
18 °C 10 km+ - 280° 280° 10 kt METAR EPGD 181900Z 28010KT CAVOK 18/12 Q1022
20:30
V
19 °C 10 km+ - 280° 280° 11 kt METAR EPGD 181830Z 28011KT CAVOK 19/12 Q1022
20:00
V
19 °C 10 km+ - 280° 280° 14 kt METAR EPGD 181800Z 28014KT CAVOK 19/12 Q1022
19:30
V
20 °C 10 km+ - 290° 290° 13 kt METAR EPGD 181730Z 29013KT CAVOK 20/12 Q1022
19:00
V
20 °C 10 km+ - 290° 290° 13 kt METAR EPGD 181700Z 29013KT 9999 FEW040 20/13 Q1021
18:30
V
21 °C 10 km+ - 290° 290° 16 kt METAR EPGD 181630Z 29016KT 9999 FEW040 21/13 Q1022
18:00
V
21 °C 10 km+ - 280° 280° 16 kt METAR EPGD 181600Z 28016KT 9999 FEW040 21/12 Q1022
17:30
V
22 °C 10 km+ - 270° 270° 13 kt METAR EPGD 181530Z 27013KT 9999 FEW040 22/13 Q1021
17:00
V
22 °C 10 km+ - 270° 270° 15 kt METAR EPGD 181500Z 27015KT 9999 FEW040 22/12 Q1021
16:30
V
22 °C 10 km+ - 280° 280° 16 kt METAR EPGD 181430Z 28016KT 9999 FEW040 22/13 Q1021
16:00
V
22 °C 10 km+ - 270° 270° 16 kt METAR EPGD 181400Z 27016KT 9999 SCT040 22/13 Q1021
15:30
V
22 °C 10 km+ - 270° 270° 14 kt METAR EPGD 181330Z 27014KT 9999 SCT038 22/13 Q1021
15:00
V
22 °C 10 km+ - 270° 270° 13 kt METAR EPGD 181300Z 27013KT 9999 SCT040 22/13 Q1022
14:30
V
23 °C 10 km+ - 270° 270° 13 kt METAR EPGD 181230Z 27013KT 220V290 9999 SCT039 23/13 Q1022
14:00
V
23 °C 10 km+ - 270° 270° 13 kt METAR EPGD 181200Z 27013KT 9999 SCT041 23/13 Q1022
13:30
V
22 °C 10 km+ - 270° 270° 12 kt METAR EPGD 181130Z 27012KT 9999 SCT035 22/12 Q1021
13:00
V
21 °C 10 km+ - 280° 280° 15 kt METAR EPGD 181100Z 28015KT 9999 SCT030 21/13 Q1021
12:30
V
21 °C 10 km+ - 260° 260° 15 kt METAR EPGD 181030Z 26015KT 9999 SCT030 21/13 Q1021
12:00
V
20 °C 10 km+ - 260° 260° 16 kt METAR EPGD 181000Z 26016KT 9999 SCT027 20/14 Q1021
11:30
V
20 °C 10 km+ - 270° 270° 12 kt METAR EPGD 180930Z 27012KT 9999 SCT025 20/14 Q1021
11:00
V
20 °C 10 km+ - 260° 260° 13 kt METAR EPGD 180900Z 26013KT 9999 SCT020 20/14 Q1021
10:30
M
20 °C 10 km+ 2.000 ft 260° 260° 13 kt METAR EPGD 180830Z 26013KT 9999 BKN020 20/14 Q1021
10:00
M
19 °C 10 km+ 2.000 ft 280° 280° 14 kt METAR EPGD 180800Z 28014KT 9999 BKN020 19/15 Q1021
09:30
M
18 °C 10 km+ 1.500 ft 270° 270° 14 kt METAR EPGD 180730Z 27014KT 9999 BKN015 18/14 Q1021
09:00
M
18 °C 10 km+ 1.400 ft 260° 260° 13 kt METAR EPGD 180700Z 26013KT 9999 BKN014 18/15 Q1020
08:30
V
18 °C 10 km+ - 260° 260° 14 kt METAR EPGD 180630Z 26014KT 9999 SCT017 18/14 Q1020
08:00
M
18 °C 10 km+ 1.600 ft 260° 260° 14 kt METAR EPGD 180600Z 26014KT 9999 BKN016 18/14 Q1020
Cambiar esta información